sensor_id;sensor_type;location;lat;lon;timestamp;P1;durP1;ratioP1;P2;durP2;ratioP2
33475;SDS011;19814;48.224;11.422;2023-07-29T00:02:19;4.65;;;2.55;;
33475;SDS011;19814;48.224;11.422;2023-07-29T00:04:45;3.50;;;2.15;;
33475;SDS011;19814;48.224;11.422;2023-07-29T00:07:10;4.03;;;2.25;;
33475;SDS011;19814;48.224;11.422;2023-07-29T00:09:39;4.82;;;2.28;;
33475;SDS011;19814;48.224;11.422;2023-07-29T00:12:04;4.60;;;2.40;;
33475;SDS011;19814;48.224;11.422;2023-07-29T00:14:30;4.80;;;2.35;;
33475;SDS011;19814;48.224;11.422;2023-07-29T00:16:55;5.45;;;2.22;;
33475;SDS011;19814;48.224;11.422;2023-07-29T00:19:21;4.72;;;2.80;;
33475;SDS011;19814;48.224;11.422;2023-07-29T00:21:48;6.45;;;3.25;;
33475;SDS011;19814;48.224;11.422;2023-07-29T00:24:14;5.60;;;2.35;;
33475;SDS011;19814;48.224;11.422;2023-07-29T00:26:39;4.72;;;2.33;;
33475;SDS011;19814;48.224;11.422;2023-07-29T00:29:05;5.40;;;2.50;;
33475;SDS011;19814;48.224;11.422;2023-07-29T00:31:33;4.50;;;2.55;;
33475;SDS011;19814;48.224;11.422;2023-07-29T00:33:59;4.20;;;2.35;;
33475;SDS011;19814;48.224;11.422;2023-07-29T00:36:25;6.25;;;2.58;;
33475;SDS011;19814;48.224;11.422;2023-07-29T00:38:50;6.07;;;2.45;;
33475;SDS011;19814;48.224;11.422;2023-07-29T00:41:18;6.00;;;2.53;;
33475;SDS011;19814;48.224;11.422;2023-07-29T00:43:44;4.68;;;2.40;;
33475;SDS011;19814;48.224;11.422;2023-07-29T00:46:10;4.38;;;2.50;;
33475;SDS011;19814;48.224;11.422;2023-07-29T00:48:37;5.43;;;2.30;;
33475;SDS011;19814;48.224;11.422;2023-07-29T00:51:03;4.40;;;2.55;;
33475;SDS011;19814;48.224;11.422;2023-07-29T00:53:29;9.23;;;3.10;;
33475;SDS011;19814;48.224;11.422;2023-07-29T00:55:54;5.05;;;2.70;;
33475;SDS011;19814;48.224;11.422;2023-07-29T00:58:20;4.32;;;2.22;;
33475;SDS011;19814;48.224;11.422;2023-07-29T01:00:46;6.28;;;2.70;;
33475;SDS011;19814;48.224;11.422;2023-07-29T01:03:12;5.97;;;2.22;;
33475;SDS011;19814;48.224;11.422;2023-07-29T01:05:46;3.80;;;2.00;;
33475;SDS011;19814;48.224;11.422;2023-07-29T01:11:33;4.28;;;2.60;;
33475;SDS011;19814;48.224;11.422;2023-07-29T01:16:47;7.53;;;2.35;;
33475;SDS011;19814;48.224;11.422;2023-07-29T01:22:34;4.47;;;2.13;;
33475;SDS011;19814;48.224;11.422;2023-07-29T01:25:01;4.97;;;2.05;;
33475;SDS011;19814;48.224;11.422;2023-07-29T01:27:28;3.58;;;1.88;;
33475;SDS011;19814;48.224;11.422;2023-07-29T01:29:55;4.05;;;1.80;;
33475;SDS011;19814;48.224;11.422;2023-07-29T01:32:28;4.57;;;1.85;;
33475;SDS011;19814;48.224;11.422;2023-07-29T01:37:39;2.15;;;1.13;;
33475;SDS011;19814;48.224;11.422;2023-07-29T01:40:06;2.05;;;1.00;;
33475;SDS011;19814;48.224;11.422;2023-07-29T01:42:34;1.92;;;1.02;;
33475;SDS011;19814;48.224;11.422;2023-07-29T01:45:00;2.08;;;1.10;;
33475;SDS011;19814;48.224;11.422;2023-07-29T01:47:25;1.90;;;1.13;;
33475;SDS011;19814;48.224;11.422;2023-07-29T01:49:51;2.70;;;1.38;;
33475;SDS011;19814;48.224;11.422;2023-07-29T01:52:16;3.40;;;1.60;;
33475;SDS011;19814;48.224;11.422;2023-07-29T01:54:42;4.82;;;1.55;;
33475;SDS011;19814;48.224;11.422;2023-07-29T01:57:07;3.58;;;1.73;;
33475;SDS011;19814;48.224;11.422;2023-07-29T01:59:33;2.90;;;1.42;;
33475;SDS011;19814;48.224;11.422;2023-07-29T02:01:58;2.72;;;1.50;;
33475;SDS011;19814;48.224;11.422;2023-07-29T02:04:24;2.47;;;1.27;;
33475;SDS011;19814;48.224;11.422;2023-07-29T02:06:49;2.15;;;1.25;;
33475;SDS011;19814;48.224;11.422;2023-07-29T02:09:15;3.30;;;1.42;;
33475;SDS011;19814;48.224;11.422;2023-07-29T02:11:41;3.33;;;1.80;;
33475;SDS011;19814;48.224;11.422;2023-07-29T02:14:06;4.20;;;1.42;;
33475;SDS011;19814;48.224;11.422;2023-07-29T02:16:32;4.72;;;2.00;;
33475;SDS011;19814;48.224;11.422;2023-07-29T02:18:59;2.47;;;1.50;;
33475;SDS011;19814;48.224;11.422;2023-07-29T02:21:25;4.80;;;1.30;;
33475;SDS011;19814;48.224;11.422;2023-07-29T02:23:50;3.38;;;1.50;;
33475;SDS011;19814;48.224;11.422;2023-07-29T02:26:16;2.75;;;1.63;;
33475;SDS011;19814;48.224;11.422;2023-07-29T02:28:42;4.30;;;1.30;;
33475;SDS011;19814;48.224;11.422;2023-07-29T02:33:43;2.20;;;1.20;;
33475;SDS011;19814;48.224;11.422;2023-07-29T02:36:09;2.50;;;1.10;;
33475;SDS011;19814;48.224;11.422;2023-07-29T02:38:35;3.33;;;1.10;;
33475;SDS011;19814;48.224;11.422;2023-07-29T02:41:00;1.58;;;0.90;;
33475;SDS011;19814;48.224;11.422;2023-07-29T02:43:26;2.55;;;1.20;;
33475;SDS011;19814;48.224;11.422;2023-07-29T02:45:51;2.20;;;1.30;;
33475;SDS011;19814;48.224;11.422;2023-07-29T02:48:17;2.97;;;1.55;;
33475;SDS011;19814;48.224;11.422;2023-07-29T02:50:42;4.72;;;1.75;;
33475;SDS011;19814;48.224;11.422;2023-07-29T02:53:08;3.60;;;2.08;;
33475;SDS011;19814;48.224;11.422;2023-07-29T02:55:33;4.20;;;1.75;;
33475;SDS011;19814;48.224;11.422;2023-07-29T02:57:59;8.25;;;2.20;;
33475;SDS011;19814;48.224;11.422;2023-07-29T03:00:24;3.33;;;1.80;;
33475;SDS011;19814;48.224;11.422;2023-07-29T03:02:50;4.43;;;2.03;;
33475;SDS011;19814;48.224;11.422;2023-07-29T03:05:16;3.08;;;1.65;;
33475;SDS011;19814;48.224;11.422;2023-07-29T03:07:41;3.53;;;1.77;;
33475;SDS011;19814;48.224;11.422;2023-07-29T03:10:07;3.85;;;1.88;;
33475;SDS011;19814;48.224;11.422;2023-07-29T03:12:34;3.25;;;1.40;;
33475;SDS011;19814;48.224;11.422;2023-07-29T03:14:59;2.92;;;1.42;;
33475;SDS011;19814;48.224;11.422;2023-07-29T03:17:25;2.97;;;1.38;;
33475;SDS011;19814;48.224;11.422;2023-07-29T03:19:51;2.95;;;1.48;;
33475;SDS011;19814;48.224;11.422;2023-07-29T03:22:17;3.13;;;1.50;;
33475;SDS011;19814;48.224;11.422;2023-07-29T03:24:42;5.50;;;1.70;;
33475;SDS011;19814;48.224;11.422;2023-07-29T03:27:08;2.75;;;1.58;;
33475;SDS011;19814;48.224;11.422;2023-07-29T03:29:34;2.78;;;1.63;;
33475;SDS011;19814;48.224;11.422;2023-07-29T03:32:00;3.40;;;1.95;;
33475;SDS011;19814;48.224;11.422;2023-07-29T03:34:26;2.47;;;1.40;;
33475;SDS011;19814;48.224;11.422;2023-07-29T03:36:51;2.58;;;1.42;;
33475;SDS011;19814;48.224;11.422;2023-07-29T03:39:17;4.18;;;1.50;;
33475;SDS011;19814;48.224;11.422;2023-07-29T03:41:42;4.40;;;2.00;;
33475;SDS011;19814;48.224;11.422;2023-07-29T03:44:08;3.28;;;1.80;;
33475;SDS011;19814;48.224;11.422;2023-07-29T03:46:33;5.43;;;1.67;;
33475;SDS011;19814;48.224;11.422;2023-07-29T03:48:59;3.30;;;1.83;;
33475;SDS011;19814;48.224;11.422;2023-07-29T03:51:24;4.20;;;1.80;;
33475;SDS011;19814;48.224;11.422;2023-07-29T03:53:50;2.97;;;1.67;;
33475;SDS011;19814;48.224;11.422;2023-07-29T03:56:15;4.05;;;1.77;;
33475;SDS011;19814;48.224;11.422;2023-07-29T03:58:41;4.55;;;1.90;;
33475;SDS011;19814;48.224;11.422;2023-07-29T04:01:08;3.78;;;1.88;;
33475;SDS011;19814;48.224;11.422;2023-07-29T04:03:34;5.10;;;2.08;;
33475;SDS011;19814;48.224;11.422;2023-07-29T04:06:00;4.15;;;1.88;;
33475;SDS011;19814;48.224;11.422;2023-07-29T04:08:25;4.60;;;2.08;;
33475;SDS011;19814;48.224;11.422;2023-07-29T04:10:51;3.47;;;1.60;;
33475;SDS011;19814;48.224;11.422;2023-07-29T04:13:17;3.05;;;1.58;;
33475;SDS011;19814;48.224;11.422;2023-07-29T04:15:42;3.95;;;1.55;;
33475;SDS011;19814;48.224;11.422;2023-07-29T04:18:08;4.95;;;1.48;;
33475;SDS011;19814;48.224;11.422;2023-07-29T04:20:33;4.13;;;1.73;;
33475;SDS011;19814;48.224;11.422;2023-07-29T04:22:59;3.58;;;1.70;;
33475;SDS011;19814;48.224;11.422;2023-07-29T04:25:25;4.22;;;1.80;;
33475;SDS011;19814;48.224;11.422;2023-07-29T04:27:50;2.90;;;1.40;;
33475;SDS011;19814;48.224;11.422;2023-07-29T04:30:16;4.03;;;1.92;;
33475;SDS011;19814;48.224;11.422;2023-07-29T04:32:41;5.97;;;2.05;;
33475;SDS011;19814;48.224;11.422;2023-07-29T04:35:08;5.20;;;1.95;;
33475;SDS011;19814;48.224;11.422;2023-07-29T04:37:34;4.05;;;1.98;;
33475;SDS011;19814;48.224;11.422;2023-07-29T04:39:59;3.33;;;1.50;;
33475;SDS011;19814;48.224;11.422;2023-07-29T04:42:25;3.25;;;1.60;;
33475;SDS011;19814;48.224;11.422;2023-07-29T04:44:50;3.20;;;1.50;;
33475;SDS011;19814;48.224;11.422;2023-07-29T04:47:16;2.58;;;1.35;;
33475;SDS011;19814;48.224;11.422;2023-07-29T04:49:43;3.25;;;1.67;;
33475;SDS011;19814;48.224;11.422;2023-07-29T04:52:09;3.67;;;1.88;;
33475;SDS011;19814;48.224;11.422;2023-07-29T04:54:34;3.92;;;1.70;;
33475;SDS011;19814;48.224;11.422;2023-07-29T04:57:00;2.95;;;1.55;;
33475;SDS011;19814;48.224;11.422;2023-07-29T04:59:26;3.38;;;1.58;;
33475;SDS011;19814;48.224;11.422;2023-07-29T05:01:51;3.47;;;1.70;;
33475;SDS011;19814;48.224;11.422;2023-07-29T05:04:17;4.63;;;1.77;;
33475;SDS011;19814;48.224;11.422;2023-07-29T05:06:42;3.63;;;1.77;;
33475;SDS011;19814;48.224;11.422;2023-07-29T05:09:17;3.53;;;1.80;;
33475;SDS011;19814;48.224;11.422;2023-07-29T05:11:44;6.05;;;2.30;;
33475;SDS011;19814;48.224;11.422;2023-07-29T05:14:11;5.53;;;1.80;;
33475;SDS011;19814;48.224;11.422;2023-07-29T05:16:37;3.80;;;1.90;;
33475;SDS011;19814;48.224;11.422;2023-07-29T05:19:03;3.78;;;1.50;;
33475;SDS011;19814;48.224;11.422;2023-07-29T05:21:29;3.83;;;1.70;;
33475;SDS011;19814;48.224;11.422;2023-07-29T05:23:55;2.50;;;1.33;;
33475;SDS011;19814;48.224;11.422;2023-07-29T05:26:20;3.67;;;1.73;;
33475;SDS011;19814;48.224;11.422;2023-07-29T05:28:46;3.72;;;1.50;;
33475;SDS011;19814;48.224;11.422;2023-07-29T05:31:12;3.05;;;1.50;;
33475;SDS011;19814;48.224;11.422;2023-07-29T05:33:37;2.85;;;1.52;;
33475;SDS011;19814;48.224;11.422;2023-07-29T05:36:03;4.13;;;1.63;;
33475;SDS011;19814;48.224;11.422;2023-07-29T05:38:30;2.90;;;1.60;;
33475;SDS011;19814;48.224;11.422;2023-07-29T05:40:55;4.07;;;1.92;;
33475;SDS011;19814;48.224;11.422;2023-07-29T05:43:21;3.53;;;1.45;;
33475;SDS011;19814;48.224;11.422;2023-07-29T05:45:46;2.17;;;1.27;;
33475;SDS011;19814;48.224;11.422;2023-07-29T05:48:12;4.65;;;1.77;;
33475;SDS011;19814;48.224;11.422;2023-07-29T05:50:37;2.53;;;1.40;;
33475;SDS011;19814;48.224;11.422;2023-07-29T05:53:03;2.50;;;1.40;;
33475;SDS011;19814;48.224;11.422;2023-07-29T05:55:28;2.72;;;1.50;;
33475;SDS011;19814;48.224;11.422;2023-07-29T05:57:54;2.65;;;1.67;;
33475;SDS011;19814;48.224;11.422;2023-07-29T06:00:20;2.65;;;1.40;;
33475;SDS011;19814;48.224;11.422;2023-07-29T06:02:45;4.47;;;1.63;;
33475;SDS011;19814;48.224;11.422;2023-07-29T06:05:11;2.88;;;1.58;;
33475;SDS011;19814;48.224;11.422;2023-07-29T06:07:37;4.43;;;1.60;;
33475;SDS011;19814;48.224;11.422;2023-07-29T06:10:03;3.35;;;1.98;;
33475;SDS011;19814;48.224;11.422;2023-07-29T06:12:28;3.58;;;1.60;;
33475;SDS011;19814;48.224;11.422;2023-07-29T06:14:54;2.50;;;1.33;;
33475;SDS011;19814;48.224;11.422;2023-07-29T06:17:19;3.20;;;1.75;;
33475;SDS011;19814;48.224;11.422;2023-07-29T06:19:45;2.78;;;1.38;;
33475;SDS011;19814;48.224;11.422;2023-07-29T06:22:10;2.60;;;1.45;;
33475;SDS011;19814;48.224;11.422;2023-07-29T06:24:36;3.22;;;1.48;;
33475;SDS011;19814;48.224;11.422;2023-07-29T06:27:02;3.65;;;1.60;;
33475;SDS011;19814;48.224;11.422;2023-07-29T06:29:28;2.55;;;1.40;;
33475;SDS011;19814;48.224;11.422;2023-07-29T06:31:53;4.88;;;1.60;;
33475;SDS011;19814;48.224;11.422;2023-07-29T06:34:19;5.28;;;1.60;;
33475;SDS011;19814;48.224;11.422;2023-07-29T06:36:45;2.83;;;1.33;;
33475;SDS011;19814;48.224;11.422;2023-07-29T06:39:10;2.70;;;1.30;;
33475;SDS011;19814;48.224;11.422;2023-07-29T06:41:36;2.50;;;1.40;;
33475;SDS011;19814;48.224;11.422;2023-07-29T06:44:03;3.42;;;1.60;;
33475;SDS011;19814;48.224;11.422;2023-07-29T06:46:29;2.80;;;1.55;;
33475;SDS011;19814;48.224;11.422;2023-07-29T06:48:54;2.95;;;1.30;;
33475;SDS011;19814;48.224;11.422;2023-07-29T06:51:20;3.40;;;1.60;;
33475;SDS011;19814;48.224;11.422;2023-07-29T06:53:45;4.18;;;1.90;;
33475;SDS011;19814;48.224;11.422;2023-07-29T06:56:11;4.80;;;1.75;;
33475;SDS011;19814;48.224;11.422;2023-07-29T06:58:37;5.30;;;1.75;;
33475;SDS011;19814;48.224;11.422;2023-07-29T07:01:02;6.00;;;1.65;;
33475;SDS011;19814;48.224;11.422;2023-07-29T07:03:28;2.45;;;1.33;;
33475;SDS011;19814;48.224;11.422;2023-07-29T07:05:56;4.45;;;1.60;;
33475;SDS011;19814;48.224;11.422;2023-07-29T07:08:22;3.17;;;1.52;;
33475;SDS011;19814;48.224;11.422;2023-07-29T07:10:47;5.10;;;1.50;;
33475;SDS011;19814;48.224;11.422;2023-07-29T07:13:13;4.10;;;2.30;;
33475;SDS011;19814;48.224;11.422;2023-07-29T07:15:42;4.47;;;1.85;;
33475;SDS011;19814;48.224;11.422;2023-07-29T07:18:10;3.65;;;1.85;;
33475;SDS011;19814;48.224;11.422;2023-07-29T07:20:35;10.32;;;2.13;;
33475;SDS011;19814;48.224;11.422;2023-07-29T07:23:01;4.45;;;2.05;;
33475;SDS011;19814;48.224;11.422;2023-07-29T07:25:27;4.05;;;1.85;;
33475;SDS011;19814;48.224;11.422;2023-07-29T07:27:53;4.50;;;2.13;;
33475;SDS011;19814;48.224;11.422;2023-07-29T07:30:19;5.10;;;2.20;;
33475;SDS011;19814;48.224;11.422;2023-07-29T07:32:44;5.57;;;2.10;;
33475;SDS011;19814;48.224;11.422;2023-07-29T07:35:10;4.85;;;2.20;;
33475;SDS011;19814;48.224;11.422;2023-07-29T07:37:36;4.70;;;2.15;;
33475;SDS011;19814;48.224;11.422;2023-07-29T07:40:01;5.70;;;2.08;;
33475;SDS011;19814;48.224;11.422;2023-07-29T07:42:27;6.13;;;2.17;;
33475;SDS011;19814;48.224;11.422;2023-07-29T07:44:54;5.50;;;2.78;;
33475;SDS011;19814;48.224;11.422;2023-07-29T07:47:20;4.47;;;2.20;;
33475;SDS011;19814;48.224;11.422;2023-07-29T07:49:45;4.68;;;2.10;;
33475;SDS011;19814;48.224;11.422;2023-07-29T07:52:11;4.72;;;2.40;;
33475;SDS011;19814;48.224;11.422;2023-07-29T07:54:36;4.50;;;2.00;;
33475;SDS011;19814;48.224;11.422;2023-07-29T07:57:02;3.90;;;2.20;;
33475;SDS011;19814;48.224;11.422;2023-07-29T07:59:28;5.50;;;2.10;;
33475;SDS011;19814;48.224;11.422;2023-07-29T08:01:53;5.80;;;2.47;;
33475;SDS011;19814;48.224;11.422;2023-07-29T08:04:22;6.40;;;2.60;;
33475;SDS011;19814;48.224;11.422;2023-07-29T08:06:47;4.72;;;2.40;;
33475;SDS011;19814;48.224;11.422;2023-07-29T08:09:16;4.50;;;2.47;;
33475;SDS011;19814;48.224;11.422;2023-07-29T08:11:41;3.75;;;2.13;;
33475;SDS011;19814;48.224;11.422;2023-07-29T08:14:07;3.50;;;1.77;;
33475;SDS011;19814;48.224;11.422;2023-07-29T08:16:32;6.32;;;2.25;;
33475;SDS011;19814;48.224;11.422;2023-07-29T08:18:58;3.60;;;2.00;;
33475;SDS011;19814;48.224;11.422;2023-07-29T08:21:23;3.55;;;1.80;;
33475;SDS011;19814;48.224;11.422;2023-07-29T08:23:49;4.40;;;1.92;;
33475;SDS011;19814;48.224;11.422;2023-07-29T08:26:14;6.20;;;2.38;;
33475;SDS011;19814;48.224;11.422;2023-07-29T08:28:41;6.05;;;1.98;;
33475;SDS011;19814;48.224;11.422;2023-07-29T08:31:07;4.45;;;2.33;;
33475;SDS011;19814;48.224;11.422;2023-07-29T08:33:33;3.83;;;2.03;;
33475;SDS011;19814;48.224;11.422;2023-07-29T08:35:58;4.55;;;2.13;;
33475;SDS011;19814;48.224;11.422;2023-07-29T08:38:24;3.75;;;2.10;;
33475;SDS011;19814;48.224;11.422;2023-07-29T08:40:52;4.47;;;2.22;;
33475;SDS011;19814;48.224;11.422;2023-07-29T08:43:29;3.88;;;1.73;;
33475;SDS011;19814;48.224;11.422;2023-07-29T08:45:56;3.22;;;1.85;;
33475;SDS011;19814;48.224;11.422;2023-07-29T08:48:23;4.57;;;1.95;;
33475;SDS011;19814;48.224;11.422;2023-07-29T08:51:05;4.15;;;2.30;;
33475;SDS011;19814;48.224;11.422;2023-07-29T08:53:32;3.45;;;2.03;;
33475;SDS011;19814;48.224;11.422;2023-07-29T08:55:58;5.22;;;2.95;;
33475;SDS011;19814;48.224;11.422;2023-07-29T08:58:24;5.90;;;2.83;;
33475;SDS011;19814;48.224;11.422;2023-07-29T09:00:50;3.80;;;2.40;;
33475;SDS011;19814;48.224;11.422;2023-07-29T09:03:16;4.88;;;2.55;;
33475;SDS011;19814;48.224;11.422;2023-07-29T09:05:42;4.03;;;2.10;;
33475;SDS011;19814;48.224;11.422;2023-07-29T09:08:07;5.45;;;2.67;;
33475;SDS011;19814;48.224;11.422;2023-07-29T09:10:36;4.32;;;2.20;;
33475;SDS011;19814;48.224;11.422;2023-07-29T09:13:02;4.43;;;1.92;;
33475;SDS011;19814;48.224;11.422;2023-07-29T09:15:29;3.33;;;2.10;;
33475;SDS011;19814;48.224;11.422;2023-07-29T09:17:56;4.60;;;2.50;;
33475;SDS011;19814;48.224;11.422;2023-07-29T09:20:28;4.25;;;2.10;;
33475;SDS011;19814;48.224;11.422;2023-07-29T09:22:58;3.63;;;1.83;;
33475;SDS011;19814;48.224;11.422;2023-07-29T09:25:27;4.30;;;2.03;;
33475;SDS011;19814;48.224;11.422;2023-07-29T09:28:00;4.50;;;1.85;;
33475;SDS011;19814;48.224;11.422;2023-07-29T09:30:26;4.38;;;2.05;;
33475;SDS011;19814;48.224;11.422;2023-07-29T09:32:56;3.83;;;2.00;;
33475;SDS011;19814;48.224;11.422;2023-07-29T09:35:22;6.20;;;2.40;;
33475;SDS011;19814;48.224;11.422;2023-07-29T09:37:50;3.70;;;2.17;;
33475;SDS011;19814;48.224;11.422;2023-07-29T09:40:17;4.07;;;2.20;;
33475;SDS011;19814;48.224;11.422;2023-07-29T09:42:53;5.00;;;2.20;;
33475;SDS011;19814;48.224;11.422;2023-07-29T09:45:23;3.20;;;1.90;;
33475;SDS011;19814;48.224;11.422;2023-07-29T09:47:52;4.22;;;2.00;;
33475;SDS011;19814;48.224;11.422;2023-07-29T09:50:18;3.47;;;2.00;;
33475;SDS011;19814;48.224;11.422;2023-07-29T09:52:44;4.05;;;1.83;;
33475;SDS011;19814;48.224;11.422;2023-07-29T09:55:16;4.80;;;1.98;;
33475;SDS011;19814;48.224;11.422;2023-07-29T09:57:44;4.18;;;1.90;;
33475;SDS011;19814;48.224;11.422;2023-07-29T10:00:13;3.28;;;1.67;;
33475;SDS011;19814;48.224;11.422;2023-07-29T10:02:39;3.67;;;1.85;;
33475;SDS011;19814;48.224;11.422;2023-07-29T10:05:06;2.90;;;1.63;;
33475;SDS011;19814;48.224;11.422;2023-07-29T10:07:33;3.35;;;1.98;;
33475;SDS011;19814;48.224;11.422;2023-07-29T10:10:02;4.68;;;2.20;;
33475;SDS011;19814;48.224;11.422;2023-07-29T10:12:30;4.03;;;2.30;;
33475;SDS011;19814;48.224;11.422;2023-07-29T10:14:58;5.38;;;2.00;;
33475;SDS011;19814;48.224;11.422;2023-07-29T10:17:25;4.63;;;2.10;;
33475;SDS011;19814;48.224;11.422;2023-07-29T10:19:51;3.35;;;1.70;;
33475;SDS011;19814;48.224;11.422;2023-07-29T10:22:19;4.20;;;2.10;;
33475;SDS011;19814;48.224;11.422;2023-07-29T10:24:46;3.60;;;2.17;;
33475;SDS011;19814;48.224;11.422;2023-07-29T10:27:13;3.13;;;1.70;;
33475;SDS011;19814;48.224;11.422;2023-07-29T10:29:43;3.70;;;2.03;;
33475;SDS011;19814;48.224;11.422;2023-07-29T10:32:10;3.65;;;1.92;;
33475;SDS011;19814;48.224;11.422;2023-07-29T10:34:36;2.95;;;1.92;;
33475;SDS011;19814;48.224;11.422;2023-07-29T10:37:03;3.75;;;1.80;;
33475;SDS011;19814;48.224;11.422;2023-07-29T10:39:37;3.80;;;1.70;;
33475;SDS011;19814;48.224;11.422;2023-07-29T10:42:05;3.50;;;1.75;;
33475;SDS011;19814;48.224;11.422;2023-07-29T10:47:11;2.63;;;1.63;;
33475;SDS011;19814;48.224;11.422;2023-07-29T10:49:40;3.38;;;1.67;;
33475;SDS011;19814;48.224;11.422;2023-07-29T10:52:06;3.45;;;1.58;;
33475;SDS011;19814;48.224;11.422;2023-07-29T10:54:34;4.20;;;1.65;;
33475;SDS011;19814;48.224;11.422;2023-07-29T10:57:43;1.95;;;1.38;;
33475;SDS011;19814;48.224;11.422;2023-07-29T11:00:05;2.28;;;1.10;;
33475;SDS011;19814;48.224;11.422;2023-07-29T11:02:32;1.73;;;0.90;;
33475;SDS011;19814;48.224;11.422;2023-07-29T11:05:04;1.83;;;1.10;;
33475;SDS011;19814;48.224;11.422;2023-07-29T11:07:30;8.90;;;1.60;;
33475;SDS011;19814;48.224;11.422;2023-07-29T11:10:09;2.70;;;1.30;;
33475;SDS011;19814;48.224;11.422;2023-07-29T11:12:46;1.70;;;1.15;;
33475;SDS011;19814;48.224;11.422;2023-07-29T11:15:34;2.47;;;1.48;;
33475;SDS011;19814;48.224;11.422;2023-07-29T11:18:00;2.97;;;1.10;;
33475;SDS011;19814;48.224;11.422;2023-07-29T11:20:37;2.15;;;1.10;;
33475;SDS011;19814;48.224;11.422;2023-07-29T11:23:03;2.05;;;1.05;;
33475;SDS011;19814;48.224;11.422;2023-07-29T11:25:29;2.25;;;1.33;;
33475;SDS011;19814;48.224;11.422;2023-07-29T11:27:57;3.63;;;1.40;;
33475;SDS011;19814;48.224;11.422;2023-07-29T11:30:23;3.30;;;1.30;;
33475;SDS011;19814;48.224;11.422;2023-07-29T11:32:54;5.00;;;1.58;;
33475;SDS011;19814;48.224;11.422;2023-07-29T11:35:22;2.38;;;1.20;;
33475;SDS011;19814;48.224;11.422;2023-07-29T11:37:49;3.67;;;1.42;;
33475;SDS011;19814;48.224;11.422;2023-07-29T11:42:45;2.30;;;1.40;;
33475;SDS011;19814;48.224;11.422;2023-07-29T11:45:12;2.50;;;1.23;;
33475;SDS011;19814;48.224;11.422;2023-07-29T11:47:38;3.15;;;1.40;;
33475;SDS011;19814;48.224;11.422;2023-07-29T11:50:05;2.63;;;1.38;;
33475;SDS011;19814;48.224;11.422;2023-07-29T11:52:39;2.83;;;1.38;;
33475;SDS011;19814;48.224;11.422;2023-07-29T11:55:09;2.80;;;1.40;;
33475;SDS011;19814;48.224;11.422;2023-07-29T11:57:37;2.47;;;1.30;;
33475;SDS011;19814;48.224;11.422;2023-07-29T12:00:07;2.30;;;1.27;;
33475;SDS011;19814;48.224;11.422;2023-07-29T12:02:40;2.80;;;1.60;;
33475;SDS011;19814;48.224;11.422;2023-07-29T12:05:10;4.93;;;1.25;;
33475;SDS011;19814;48.224;11.422;2023-07-29T12:07:39;2.08;;;1.38;;
33475;SDS011;19814;48.224;11.422;2023-07-29T12:10:06;1.90;;;1.40;;
33475;SDS011;19814;48.224;11.422;2023-07-29T12:12:32;4.75;;;1.60;;
33475;SDS011;19814;48.224;11.422;2023-07-29T12:14:57;2.85;;;1.48;;
33475;SDS011;19814;48.224;11.422;2023-07-29T12:17:23;2.80;;;1.30;;
33475;SDS011;19814;48.224;11.422;2023-07-29T12:19:53;3.33;;;1.58;;
33475;SDS011;19814;48.224;11.422;2023-07-29T12:22:19;3.78;;;2.00;;
33475;SDS011;19814;48.224;11.422;2023-07-29T12:24:45;3.50;;;1.67;;
33475;SDS011;19814;48.224;11.422;2023-07-29T12:27:12;3.67;;;1.73;;
33475;SDS011;19814;48.224;11.422;2023-07-29T12:29:42;3.05;;;1.73;;
33475;SDS011;19814;48.224;11.422;2023-07-29T12:32:08;3.90;;;1.90;;
33475;SDS011;19814;48.224;11.422;2023-07-29T12:34:35;4.72;;;1.90;;
33475;SDS011;19814;48.224;11.422;2023-07-29T12:37:03;8.63;;;2.28;;
33475;SDS011;19814;48.224;11.422;2023-07-29T12:39:30;8.57;;;3.03;;
33475;SDS011;19814;48.224;11.422;2023-07-29T12:42:00;7.53;;;2.67;;
33475;SDS011;19814;48.224;11.422;2023-07-29T12:44:30;3.58;;;2.25;;
33475;SDS011;19814;48.224;11.422;2023-07-29T12:46:57;4.95;;;1.90;;
33475;SDS011;19814;48.224;11.422;2023-07-29T12:49:22;5.40;;;1.88;;
33475;SDS011;19814;48.224;11.422;2023-07-29T12:51:48;4.55;;;2.08;;
33475;SDS011;19814;48.224;11.422;2023-07-29T12:54:14;4.20;;;2.28;;
33475;SDS011;19814;48.224;11.422;2023-07-29T12:56:39;4.57;;;2.15;;
33475;SDS011;19814;48.224;11.422;2023-07-29T12:59:05;3.70;;;1.83;;
33475;SDS011;19814;48.224;11.422;2023-07-29T13:01:30;4.15;;;2.05;;
33475;SDS011;19814;48.224;11.422;2023-07-29T13:03:56;4.63;;;2.00;;
33475;SDS011;19814;48.224;11.422;2023-07-29T13:06:22;4.97;;;2.40;;
33475;SDS011;19814;48.224;11.422;2023-07-29T13:08:48;4.43;;;2.42;;
33475;SDS011;19814;48.224;11.422;2023-07-29T13:11:14;2.90;;;1.75;;
33475;SDS011;19814;48.224;11.422;2023-07-29T13:13:40;3.90;;;2.25;;
33475;SDS011;19814;48.224;11.422;2023-07-29T13:16:06;4.05;;;2.10;;
33475;SDS011;19814;48.224;11.422;2023-07-29T13:18:32;4.82;;;2.13;;
33475;SDS011;19814;48.224;11.422;2023-07-29T13:20:57;4.38;;;2.10;;
33475;SDS011;19814;48.224;11.422;2023-07-29T13:23:25;4.75;;;2.53;;
33475;SDS011;19814;48.224;11.422;2023-07-29T13:25:50;5.20;;;2.38;;
33475;SDS011;19814;48.224;11.422;2023-07-29T13:28:16;5.70;;;3.10;;
33475;SDS011;19814;48.224;11.422;2023-07-29T13:30:42;3.55;;;2.17;;
33475;SDS011;19814;48.224;11.422;2023-07-29T13:33:07;3.97;;;2.20;;
33475;SDS011;19814;48.224;11.422;2023-07-29T13:35:33;5.28;;;2.05;;
33475;SDS011;19814;48.224;11.422;2023-07-29T13:37:59;5.03;;;2.47;;
33475;SDS011;19814;48.224;11.422;2023-07-29T13:40:25;4.30;;;1.98;;
33475;SDS011;19814;48.224;11.422;2023-07-29T13:42:51;5.75;;;2.25;;
33475;SDS011;19814;48.224;11.422;2023-07-29T13:45:17;3.75;;;2.08;;
33475;SDS011;19814;48.224;11.422;2023-07-29T13:47:43;3.55;;;1.98;;
33475;SDS011;19814;48.224;11.422;2023-07-29T13:50:08;2.35;;;1.50;;
33475;SDS011;19814;48.224;11.422;2023-07-29T13:52:35;5.32;;;2.25;;
33475;SDS011;19814;48.224;11.422;2023-07-29T13:55:02;6.28;;;2.03;;
33475;SDS011;19814;48.224;11.422;2023-07-29T13:57:28;3.38;;;1.90;;
33475;SDS011;19814;48.224;11.422;2023-07-29T13:59:54;4.32;;;1.73;;
33475;SDS011;19814;48.224;11.422;2023-07-29T14:02:19;3.33;;;1.90;;
33475;SDS011;19814;48.224;11.422;2023-07-29T14:04:45;3.63;;;1.90;;
33475;SDS011;19814;48.224;11.422;2023-07-29T14:07:10;6.60;;;2.33;;
33475;SDS011;19814;48.224;11.422;2023-07-29T14:09:36;3.78;;;2.03;;
33475;SDS011;19814;48.224;11.422;2023-07-29T14:12:03;4.07;;;2.33;;
33475;SDS011;19814;48.224;11.422;2023-07-29T14:14:29;5.50;;;2.00;;
33475;SDS011;19814;48.224;11.422;2023-07-29T14:16:55;3.90;;;2.03;;
33475;SDS011;19814;48.224;11.422;2023-07-29T14:19:24;4.05;;;2.45;;
33475;SDS011;19814;48.224;11.422;2023-07-29T14:21:49;4.55;;;2.22;;
33475;SDS011;19814;48.224;11.422;2023-07-29T14:24:15;4.97;;;2.05;;
33475;SDS011;19814;48.224;11.422;2023-07-29T14:26:41;5.22;;;2.28;;
33475;SDS011;19814;48.224;11.422;2023-07-29T14:29:07;5.15;;;2.53;;
33475;SDS011;19814;48.224;11.422;2023-07-29T14:31:32;5.28;;;2.53;;
33475;SDS011;19814;48.224;11.422;2023-07-29T14:33:58;4.20;;;2.15;;
33475;SDS011;19814;48.224;11.422;2023-07-29T14:36:24;4.18;;;2.15;;
33475;SDS011;19814;48.224;11.422;2023-07-29T14:38:50;4.03;;;2.10;;
33475;SDS011;19814;48.224;11.422;2023-07-29T14:41:16;4.35;;;1.92;;
33475;SDS011;19814;48.224;11.422;2023-07-29T14:43:41;4.13;;;1.92;;
33475;SDS011;19814;48.224;11.422;2023-07-29T14:46:07;3.40;;;1.73;;
33475;SDS011;19814;48.224;11.422;2023-07-29T14:48:32;2.65;;;1.70;;
33475;SDS011;19814;48.224;11.422;2023-07-29T14:50:58;3.33;;;1.70;;